createdAt,value
2018-12-30T00:00:33.831Z,1016.8
2018-12-30T00:01:35.291Z,1016.8
2018-12-30T00:02:36.742Z,1016.7
2018-12-30T00:03:38.212Z,1016.7
2018-12-30T00:04:39.606Z,1016.7
2018-12-30T00:05:41.032Z,1016.8
2018-12-30T00:06:42.499Z,1016.7
2018-12-30T00:07:44.282Z,1016.6
2018-12-30T00:08:46.311Z,1016.7
2018-12-30T00:09:47.815Z,1016.7
2018-12-30T00:10:49.453Z,1016.7
2018-12-30T00:11:51.020Z,1016.7
2018-12-30T00:12:52.948Z,1016.7
2018-12-30T00:13:54.437Z,1016.6
2018-12-30T00:14:56.021Z,1016.5
2018-12-30T00:15:57.577Z,1016.4
2018-12-30T00:16:59.209Z,1016.4
2018-12-30T00:18:00.721Z,1016.5
2018-12-30T00:19:02.465Z,1016.5
2018-12-30T00:20:04.009Z,1016.5
2018-12-30T00:21:08.915Z,1016.5
2018-12-30T00:22:07.056Z,1016.4
2018-12-30T00:23:08.661Z,1016.4
2018-12-30T00:24:10.873Z,1016.5
2018-12-30T00:25:12.535Z,1016.5
2018-12-30T00:26:14.133Z,1016.5
2018-12-30T00:27:15.777Z,1016.5
2018-12-30T00:28:17.272Z,1016.5
2018-12-30T00:29:18.954Z,1016.5
2018-12-30T00:30:20.567Z,1016.5
2018-12-30T00:31:22.058Z,1016.5
2018-12-30T00:32:23.642Z,1016.5
2018-12-30T00:33:25.276Z,1016.5
2018-12-30T00:34:28.248Z,1016.4
2018-12-30T00:35:29.716Z,1016.5
2018-12-30T00:36:31.223Z,1016.5
2018-12-30T00:37:32.708Z,1016.5
2018-12-30T00:38:34.246Z,1016.5
2018-12-30T00:39:36.646Z,1016.4
2018-12-30T00:40:37.349Z,1016.4
2018-12-30T00:41:38.903Z,1016.4
2018-12-30T00:42:41.465Z,1016.4
2018-12-30T00:43:43.067Z,1016.5
2018-12-30T00:44:44.711Z,1016.5
2018-12-30T00:45:46.321Z,1016.4
2018-12-30T00:46:47.948Z,1016.5
2018-12-30T00:47:49.772Z,1016.4
2018-12-30T00:48:51.386Z,1016.4
2018-12-30T00:49:52.926Z,1016.4
2018-12-30T00:50:54.471Z,1016.4
2018-12-30T00:51:56.961Z,1016.5
2018-12-30T00:52:58.682Z,1016.4
2018-12-30T00:54:00.144Z,1016.5
2018-12-30T00:55:02.433Z,1016.5
2018-12-30T00:56:04.036Z,1016.4
2018-12-30T00:57:05.496Z,1016.4
2018-12-30T00:58:07.028Z,1016.4
2018-12-30T00:59:08.651Z,1016.4
2018-12-30T01:00:10.167Z,1016.4
2018-12-30T01:01:12.447Z,1016.4
2018-12-30T01:02:15.982Z,1016.4
2018-12-30T01:03:17.489Z,1016.5
2018-12-30T01:04:19.006Z,1016.5
2018-12-30T01:05:20.561Z,1016.5
2018-12-30T01:06:22.101Z,1016.6
2018-12-30T01:07:23.639Z,1016.5
2018-12-30T01:08:26.200Z,1016.5
2018-12-30T01:09:27.744Z,1016.5
2018-12-30T01:10:29.289Z,1016.5
2018-12-30T01:11:30.832Z,1016.5
2018-12-30T01:12:32.422Z,1016.5
2018-12-30T01:13:33.973Z,1016.6
2018-12-30T01:14:35.473Z,1016.6
2018-12-30T01:15:36.934Z,1016.6
2018-12-30T01:16:38.394Z,1016.6
2018-12-30T01:17:39.871Z,1016.6
2018-12-30T01:18:41.423Z,1016.7
2018-12-30T01:19:42.807Z,1016.7
2018-12-30T01:20:44.374Z,1016.7
2018-12-30T01:21:45.858Z,1016.7
2018-12-30T01:22:47.433Z,1016.7
2018-12-30T01:23:49.034Z,1016.7
2018-12-30T01:24:50.477Z,1016.7
2018-12-30T01:25:51.972Z,1016.7
2018-12-30T01:26:53.558Z,1016.7
2018-12-30T01:27:55.069Z,1016.7
2018-12-30T01:28:56.586Z,1016.8
2018-12-30T01:29:58.881Z,1016.8
2018-12-30T01:31:00.470Z,1016.8
2018-12-30T01:32:01.945Z,1016.8
2018-12-30T01:33:03.427Z,1016.8
2018-12-30T01:34:04.947Z,1016.8
2018-12-30T01:35:06.644Z,1016.8
2018-12-30T01:36:08.098Z,1016.7
2018-12-30T01:37:09.662Z,1016.7
2018-12-30T01:38:12.025Z,1016.8
2018-12-30T01:39:13.516Z,1016.8
2018-12-30T01:40:15.017Z,1016.8
2018-12-30T01:41:17.169Z,1016.8
2018-12-30T01:42:17.932Z,1016.8
2018-12-30T01:43:19.442Z,1016.9
2018-12-30T01:44:20.917Z,1016.8
2018-12-30T01:45:22.423Z,1016.8
2018-12-30T01:46:23.906Z,1016.9
2018-12-30T01:47:25.414Z,1016.9
2018-12-30T01:48:26.869Z,1016.9
2018-12-30T01:49:28.389Z,1016.9
2018-12-30T01:50:29.893Z,1016.9
2018-12-30T01:51:33.181Z,1017.0
2018-12-30T01:52:32.889Z,1017.1
2018-12-30T01:53:34.548Z,1017.0
2018-12-30T01:54:36.066Z,1017.1
2018-12-30T01:55:37.616Z,1017.0
2018-12-30T01:56:39.204Z,1017.0
2018-12-30T01:57:41.406Z,1017.1
2018-12-30T01:58:42.888Z,1017.1
2018-12-30T01:59:45.772Z,1017.1
2018-12-30T02:00:47.272Z,1017.1
2018-12-30T02:01:48.695Z,1017.1
2018-12-30T02:02:50.198Z,1017.1
2018-12-30T02:03:51.743Z,1017.1
2018-12-30T02:04:53.243Z,1017.1
2018-12-30T02:05:55.608Z,1017.1
2018-12-30T02:06:56.958Z,1017.1
2018-12-30T02:07:59.398Z,1017.2
2018-12-30T02:09:00.798Z,1017.1
2018-12-30T02:10:02.293Z,1017.1
2018-12-30T02:11:03.844Z,1017.1
2018-12-30T02:12:06.667Z,1017.1
2018-12-30T02:13:07.369Z,1017.2
2018-12-30T02:14:09.151Z,1017.2
2018-12-30T02:15:10.672Z,1017.3
2018-12-30T02:16:12.443Z,1017.3
2018-12-30T02:17:14.730Z,1017.3
2018-12-30T02:18:16.475Z,1017.3
2018-12-30T02:19:17.922Z,1017.3
2018-12-30T02:20:20.391Z,1017.3
2018-12-30T02:21:22.103Z,1017.3
2018-12-30T02:22:23.863Z,1017.3
2018-12-30T02:23:25.691Z,1017.3
2018-12-30T02:24:27.232Z,1017.3
2018-12-30T02:25:28.780Z,1017.4
2018-12-30T02:26:30.401Z,1017.3
2018-12-30T02:27:32.043Z,1017.3
2018-12-30T02:28:33.667Z,1017.3
2018-12-30T02:29:35.201Z,1017.3
2018-12-30T02:30:37.271Z,1017.3
2018-12-30T02:31:38.924Z,1017.3
2018-12-30T02:32:40.409Z,1017.3
2018-12-30T02:33:41.967Z,1017.3
2018-12-30T02:34:43.658Z,1017.3
2018-12-30T02:35:45.933Z,1017.3
2018-12-30T02:36:47.570Z,1017.3
2018-12-30T02:37:49.143Z,1017.3
2018-12-30T02:38:50.980Z,1017.2
2018-12-30T02:39:52.642Z,1017.3
2018-12-30T02:40:54.236Z,1017.2
2018-12-30T02:41:55.853Z,1017.2
2018-12-30T02:42:57.576Z,1017.3
2018-12-30T02:43:59.142Z,1017.2
2018-12-30T02:45:00.823Z,1017.2
2018-12-30T02:46:02.697Z,1017.2
2018-12-30T02:47:04.167Z,1017.2
2018-12-30T02:48:05.943Z,1017.3
2018-12-30T02:49:07.542Z,1017.2
2018-12-30T02:50:09.443Z,1017.3
2018-12-30T02:51:10.987Z,1017.2
2018-12-30T02:52:12.667Z,1017.2
2018-12-30T02:53:14.282Z,1017.2
2018-12-30T02:54:15.902Z,1017.2
2018-12-30T02:55:17.492Z,1017.2
2018-12-30T02:56:19.167Z,1017.2
2018-12-30T02:57:21.312Z,1017.2
2018-12-30T02:58:23.625Z,1017.3
2018-12-30T02:59:25.187Z,1017.3
2018-12-30T03:00:26.828Z,1017.3
2018-12-30T03:01:28.440Z,1017.3
2018-12-30T03:02:30.027Z,1017.3
2018-12-30T03:03:31.628Z,1017.2
2018-12-30T03:04:33.309Z,1017.2
2018-12-30T03:05:35.273Z,1017.3
2018-12-30T03:06:36.893Z,1017.3
2018-12-30T03:07:38.592Z,1017.3
2018-12-30T03:08:40.428Z,1017.3
2018-12-30T03:09:42.179Z,1017.3
2018-12-30T03:10:43.945Z,1017.3
2018-12-30T03:11:45.527Z,1017.3
2018-12-30T03:12:47.160Z,1017.3
2018-12-30T03:13:48.807Z,1017.3
2018-12-30T03:14:52.044Z,1017.3
2018-12-30T03:15:53.825Z,1017.3
2018-12-30T03:16:55.558Z,1017.3
2018-12-30T03:17:57.082Z,1017.2
2018-12-30T03:18:58.808Z,1017.3
2018-12-30T03:20:00.440Z,1017.2
2018-12-30T03:21:02.276Z,1017.2
2018-12-30T03:22:03.971Z,1017.2
2018-12-30T03:23:05.840Z,1017.2
2018-12-30T03:24:07.617Z,1017.2
2018-12-30T03:25:09.443Z,1017.2
2018-12-30T03:26:11.370Z,1017.3
2018-12-30T03:27:13.095Z,1017.3
2018-12-30T03:28:14.944Z,1017.3
2018-12-30T03:29:16.675Z,1017.3
2018-12-30T03:30:18.414Z,1017.2
2018-12-30T03:31:20.269Z,1017.3
2018-12-30T03:32:22.015Z,1017.3
2018-12-30T03:33:24.020Z,1017.3
2018-12-30T03:34:27.030Z,1017.3
2018-12-30T03:35:28.741Z,1017.3
2018-12-30T03:36:30.463Z,1017.3
2018-12-30T03:37:32.218Z,1017.3
2018-12-30T03:38:33.963Z,1017.2
2018-12-30T03:39:35.596Z,1017.2
2018-12-30T03:40:37.492Z,1017.2
2018-12-30T03:41:39.189Z,1017.3
2018-12-30T03:42:41.043Z,1017.3
2018-12-30T03:43:42.916Z,1017.3
2018-12-30T03:44:44.510Z,1017.3
2018-12-30T03:45:46.083Z,1017.3
2018-12-30T03:46:47.790Z,1017.3
2018-12-30T03:47:49.843Z,1017.3
2018-12-30T03:48:51.607Z,1017.3
2018-12-30T03:49:53.364Z,1017.3
2018-12-30T03:50:55.366Z,1017.4
2018-12-30T03:51:57.256Z,1017.4
2018-12-30T03:52:59.193Z,1017.4
2018-12-30T03:54:00.904Z,1017.4
2018-12-30T03:55:02.628Z,1017.4
2018-12-30T03:56:04.237Z,1017.4
2018-12-30T03:57:06.095Z,1017.4
2018-12-30T03:58:07.792Z,1017.4
2018-12-30T03:59:09.455Z,1017.4
2018-12-30T04:00:11.229Z,1017.5
2018-12-30T04:01:13.020Z,1017.5
2018-12-30T04:02:14.573Z,1017.5
2018-12-30T04:03:16.325Z,1017.4
2018-12-30T04:04:18.095Z,1017.5
2018-12-30T04:05:20.920Z,1017.5
2018-12-30T04:06:23.035Z,1017.5
2018-12-30T04:07:24.545Z,1017.5
2018-12-30T04:08:26.317Z,1017.5
2018-12-30T04:09:27.977Z,1017.5
2018-12-30T04:10:29.640Z,1017.5
2018-12-30T04:11:31.359Z,1017.5
2018-12-30T04:12:32.982Z,1017.5
2018-12-30T04:13:34.654Z,1017.5
2018-12-30T04:14:36.444Z,1017.6
2018-12-30T04:15:38.114Z,1017.6
2018-12-30T04:16:39.804Z,1017.6
2018-12-30T04:17:41.605Z,1017.6
2018-12-30T04:18:43.420Z,1017.6
2018-12-30T04:19:45.321Z,1017.5
2018-12-30T04:20:47.081Z,1017.6
2018-12-30T04:21:48.751Z,1017.6
2018-12-30T04:22:50.624Z,1017.6
2018-12-30T04:23:52.486Z,1017.6
2018-12-30T04:24:54.333Z,1017.6
2018-12-30T04:25:56.415Z,1017.6
2018-12-30T04:26:58.175Z,1017.6
2018-12-30T04:28:00.029Z,1017.6
2018-12-30T04:29:01.650Z,1017.5
2018-12-30T04:30:04.179Z,1017.6
2018-12-30T04:31:05.700Z,1017.5
2018-12-30T04:32:07.445Z,1017.6
2018-12-30T04:33:09.285Z,1017.6
2018-12-30T04:34:11.049Z,1017.6
2018-12-30T04:35:12.858Z,1017.6
2018-12-30T04:36:14.517Z,1017.6
2018-12-30T04:37:16.795Z,1017.6
2018-12-30T04:38:18.329Z,1017.6
2018-12-30T04:39:20.124Z,1017.7
2018-12-30T04:40:21.734Z,1017.7
2018-12-30T04:41:23.532Z,1017.7
2018-12-30T04:42:25.303Z,1017.6
2018-12-30T04:43:27.126Z,1017.6
2018-12-30T04:44:29.090Z,1017.7
2018-12-30T04:45:30.827Z,1017.7
2018-12-30T04:46:32.782Z,1017.7
2018-12-30T04:47:34.611Z,1017.6
2018-12-30T04:48:36.380Z,1017.6
2018-12-30T04:49:38.698Z,1017.6
2018-12-30T04:50:40.052Z,1017.7
2018-12-30T04:51:41.560Z,1017.7
2018-12-30T04:52:43.387Z,1017.7
2018-12-30T04:53:45.321Z,1017.7
2018-12-30T04:54:48.922Z,1017.7
2018-12-30T04:55:50.824Z,1017.7
2018-12-30T04:56:52.970Z,1017.7
2018-12-30T04:57:54.882Z,1017.8
2018-12-30T04:58:56.775Z,1017.8
2018-12-30T04:59:58.576Z,1017.8
2018-12-30T05:01:00.485Z,1017.8
2018-12-30T05:02:02.761Z,1017.8
2018-12-30T05:03:04.477Z,1017.8
2018-12-30T05:04:06.305Z,1017.8
2018-12-30T05:05:07.890Z,1017.9
2018-12-30T05:06:09.635Z,1017.9
2018-12-30T05:07:11.237Z,1017.9
2018-12-30T05:08:12.939Z,1017.9
2018-12-30T05:09:14.561Z,1017.9
2018-12-30T05:10:16.235Z,1018.0
2018-12-30T05:11:17.878Z,1018.0
2018-12-30T05:12:19.655Z,1018.0
2018-12-30T05:13:21.296Z,1018.1
2018-12-30T05:14:24.002Z,1018.0
2018-12-30T05:15:25.827Z,1018.0
2018-12-30T05:16:27.483Z,1018.0
2018-12-30T05:17:29.195Z,1018.1
2018-12-30T05:18:31.046Z,1018.1
2018-12-30T05:19:32.709Z,1018.1
2018-12-30T05:20:34.615Z,1018.1
2018-12-30T05:21:36.295Z,1018.1
2018-12-30T05:22:38.037Z,1018.1
2018-12-30T05:23:39.845Z,1018.2
2018-12-30T05:24:42.681Z,1018.2
2018-12-30T05:25:44.439Z,1018.2
2018-12-30T05:26:46.150Z,1018.2
2018-12-30T05:27:48.086Z,1018.2
2018-12-30T05:28:49.966Z,1018.2
2018-12-30T05:29:52.321Z,1018.2
2018-12-30T05:30:53.152Z,1018.2
2018-12-30T05:31:54.993Z,1018.3
2018-12-30T05:32:56.713Z,1018.3
2018-12-30T05:33:58.494Z,1018.4
2018-12-30T05:35:00.264Z,1018.4
2018-12-30T05:36:01.912Z,1018.4
2018-12-30T05:37:03.671Z,1018.4
2018-12-30T05:38:05.548Z,1018.4
2018-12-30T05:39:07.194Z,1018.4
2018-12-30T05:40:08.969Z,1018.5
2018-12-30T05:41:11.438Z,1018.5
2018-12-30T05:42:13.266Z,1018.5
2018-12-30T05:43:15.133Z,1018.6
2018-12-30T05:44:16.956Z,1018.6
2018-12-30T05:45:18.798Z,1018.6
2018-12-30T05:46:20.551Z,1018.6
2018-12-30T05:47:22.230Z,1018.6
2018-12-30T05:48:24.067Z,1018.6
2018-12-30T05:49:25.682Z,1018.6
2018-12-30T05:50:27.485Z,1018.6
2018-12-30T05:51:29.286Z,1018.7
2018-12-30T05:52:30.784Z,1018.6
2018-12-30T05:53:32.516Z,1018.7
2018-12-30T05:54:34.149Z,1018.7
2018-12-30T05:55:36.275Z,1018.7
2018-12-30T05:56:37.885Z,1018.8
2018-12-30T05:57:39.458Z,1018.8
2018-12-30T05:58:41.195Z,1018.8
2018-12-30T05:59:42.762Z,1018.8
2018-12-30T06:00:44.451Z,1018.8
2018-12-30T06:01:46.394Z,1018.8
2018-12-30T06:02:48.215Z,1018.9
2018-12-30T06:03:50.167Z,1018.9
2018-12-30T06:04:52.011Z,1018.9
2018-12-30T06:05:53.771Z,1018.9
2018-12-30T06:06:55.484Z,1018.9
2018-12-30T06:07:57.282Z,1018.9
2018-12-30T06:08:59.162Z,1018.9
2018-12-30T06:10:00.948Z,1018.9
2018-12-30T06:11:02.906Z,1018.9
2018-12-30T06:12:04.935Z,1018.9
2018-12-30T06:13:06.810Z,1019.0
2018-12-30T06:14:08.780Z,1018.9
2018-12-30T06:15:11.568Z,1018.9
2018-12-30T06:16:13.372Z,1018.9
2018-12-30T06:17:15.284Z,1018.9
2018-12-30T06:18:17.209Z,1018.9
2018-12-30T06:19:19.182Z,1019.0
2018-12-30T06:20:21.161Z,1019.0
2018-12-30T06:21:22.969Z,1019.0
2018-12-30T06:22:24.940Z,1019.1
2018-12-30T06:23:26.890Z,1019.1
2018-12-30T06:24:28.636Z,1019.0
2018-12-30T06:25:30.639Z,1019.0
2018-12-30T06:26:32.571Z,1019.0
2018-12-30T06:27:35.112Z,1019.1
2018-12-30T06:28:37.069Z,1019.2
2018-12-30T06:29:38.789Z,1019.2
2018-12-30T06:30:40.570Z,1019.2
2018-12-30T06:31:42.475Z,1019.2
2018-12-30T06:32:44.625Z,1019.2
2018-12-30T06:33:46.444Z,1019.3
2018-12-30T06:34:48.611Z,1019.3
2018-12-30T06:35:50.799Z,1019.3
2018-12-30T06:36:52.835Z,1019.2
2018-12-30T06:37:55.101Z,1019.3
2018-12-30T06:38:56.985Z,1019.3
2018-12-30T06:39:59.052Z,1019.3
2018-12-30T06:41:00.979Z,1019.3
2018-12-30T06:42:03.309Z,1019.4
2018-12-30T06:43:04.935Z,1019.4
2018-12-30T06:44:06.368Z,1019.5
2018-12-30T06:45:07.785Z,1019.5
2018-12-30T06:46:09.292Z,1019.6
2018-12-30T06:47:11.317Z,1019.6
2018-12-30T06:48:12.764Z,1019.6
2018-12-30T06:49:14.264Z,1019.6
2018-12-30T06:50:15.761Z,1019.6
2018-12-30T06:51:17.161Z,1019.7
2018-12-30T06:52:18.695Z,1019.7
2018-12-30T06:53:20.926Z,1019.7
2018-12-30T06:54:22.539Z,1019.7
2018-12-30T06:55:24.147Z,1019.8
2018-12-30T06:56:26.204Z,1019.8
2018-12-30T06:57:28.145Z,1019.8
2018-12-30T06:58:30.012Z,1019.9
2018-12-30T06:59:32.451Z,1019.9
2018-12-30T07:00:35.503Z,1019.9
2018-12-30T07:01:35.832Z,1020.0
2018-12-30T07:02:38.461Z,1019.9
2018-12-30T07:03:40.149Z,1020.0
2018-12-30T07:04:41.847Z,1020.0
2018-12-30T07:05:43.484Z,1020.0
2018-12-30T07:06:45.222Z,1020.0
2018-12-30T07:07:47.127Z,1020.1
2018-12-30T07:08:49.181Z,1020.1
2018-12-30T07:09:51.311Z,1020.1
2018-12-30T07:10:53.372Z,1020.0
2018-12-30T07:11:55.371Z,1020.1
2018-12-30T07:12:57.872Z,1020.1
2018-12-30T07:13:59.790Z,1020.1
2018-12-30T07:15:02.627Z,1020.1
2018-12-30T07:16:04.541Z,1020.1
2018-12-30T07:17:06.497Z,1020.1
2018-12-30T07:18:08.577Z,1020.1
2018-12-30T07:19:10.669Z,1020.1
2018-12-30T07:20:12.525Z,1020.0
2018-12-30T07:21:14.341Z,1020.0
2018-12-30T07:22:16.326Z,1020.1
2018-12-30T07:23:18.108Z,1020.1
2018-12-30T07:24:20.136Z,1020.1
2018-12-30T07:25:22.003Z,1020.2
2018-12-30T07:26:24.527Z,1020.2
2018-12-30T07:27:26.449Z,1020.1
2018-12-30T07:28:28.107Z,1020.1
2018-12-30T07:29:29.960Z,1020.1
2018-12-30T07:30:31.845Z,1020.1
2018-12-30T07:31:33.811Z,1020.1
2018-12-30T07:32:35.578Z,1020.1
2018-12-30T07:33:37.592Z,1020.2
2018-12-30T07:34:39.516Z,1020.2
2018-12-30T07:35:41.607Z,1020.2
2018-12-30T07:36:43.575Z,1020.2
2018-12-30T07:37:45.615Z,1020.2
2018-12-30T07:38:47.577Z,1020.2
2018-12-30T07:39:49.302Z,1020.2
2018-12-30T07:40:51.162Z,1020.2
2018-12-30T07:41:53.192Z,1020.1
2018-12-30T07:42:55.030Z,1020.1
2018-12-30T07:43:57.050Z,1020.1
2018-12-30T07:44:58.487Z,1020.1
2018-12-30T07:46:00.059Z,1020.1
2018-12-30T07:47:03.063Z,1020.1
2018-12-30T07:48:04.523Z,1020.1
2018-12-30T07:49:05.963Z,1020.0
2018-12-30T07:50:07.479Z,1020.1
2018-12-30T07:51:08.982Z,1020.1
2018-12-30T07:52:10.415Z,1020.1
2018-12-30T07:53:13.898Z,1020.1
2018-12-30T07:54:13.291Z,1020.1
2018-12-30T07:55:14.777Z,1020.1
2018-12-30T07:56:16.863Z,1020.2
2018-12-30T07:57:18.837Z,1020.2
2018-12-30T07:58:20.981Z,1020.1
2018-12-30T07:59:23.336Z,1020.1
2018-12-30T08:00:25.262Z,1020.1
2018-12-30T08:01:27.648Z,1020.2
2018-12-30T08:02:29.811Z,1020.2
2018-12-30T08:03:31.786Z,1020.2
2018-12-30T08:04:34.026Z,1020.2
2018-12-30T08:05:36.257Z,1020.3
2018-12-30T08:06:38.323Z,1020.3
2018-12-30T08:07:40.377Z,1020.3
2018-12-30T08:08:42.487Z,1020.3
2018-12-30T08:09:46.452Z,1020.4
2018-12-30T08:10:48.582Z,1020.5
2018-12-30T08:11:50.378Z,1020.5
2018-12-30T08:12:52.401Z,1020.5
2018-12-30T08:13:55.738Z,1020.5
2018-12-30T08:14:56.342Z,1020.5
2018-12-30T08:15:58.281Z,1020.5
2018-12-30T08:17:00.068Z,1020.6
2018-12-30T08:18:02.096Z,1020.6
2018-12-30T08:19:04.027Z,1020.6
2018-12-30T08:20:06.108Z,1020.7
2018-12-30T08:21:08.256Z,1020.7
2018-12-30T08:22:10.304Z,1020.7
2018-12-30T08:23:12.229Z,1020.7
2018-12-30T08:24:14.357Z,1020.8
2018-12-30T08:25:16.494Z,1020.8
2018-12-30T08:26:18.467Z,1020.8
2018-12-30T08:27:20.557Z,1020.9
2018-12-30T08:28:25.135Z,1020.8
2018-12-30T08:29:24.568Z,1020.9
2018-12-30T08:30:26.493Z,1020.9
2018-12-30T08:31:28.274Z,1020.9
2018-12-30T08:32:29.733Z,1021.0
2018-12-30T08:33:31.446Z,1021.0
2018-12-30T08:34:33.242Z,1021.1
2018-12-30T08:35:35.169Z,1021.0
2018-12-30T08:36:36.869Z,1021.1
2018-12-30T08:37:38.753Z,1021.1
2018-12-30T08:38:40.423Z,1021.0
2018-12-30T08:39:42.483Z,1021.0
2018-12-30T08:40:44.035Z,1021.1
2018-12-30T08:41:45.930Z,1021.1
2018-12-30T08:42:47.853Z,1021.0
2018-12-30T08:43:50.021Z,1021.0
2018-12-30T08:44:51.593Z,1021.0
2018-12-30T08:45:54.547Z,1021.1
2018-12-30T08:46:56.380Z,1021.1
2018-12-30T08:47:57.764Z,1021.0
2018-12-30T08:48:59.484Z,1021.0
2018-12-30T08:50:01.233Z,1021.0
2018-12-30T08:51:02.823Z,1021.0
2018-12-30T08:52:04.418Z,1021.1
2018-12-30T08:53:06.244Z,1021.1
2018-12-30T08:54:08.129Z,1021.0
2018-12-30T08:55:09.932Z,1021.0
2018-12-30T08:56:11.593Z,1021.1
2018-12-30T08:57:13.161Z,1021.1
2018-12-30T08:58:15.349Z,1021.1
2018-12-30T08:59:16.931Z,1021.1
2018-12-30T09:00:18.531Z,1021.1
2018-12-30T09:01:28.119Z,1021.0
2018-12-30T09:02:22.254Z,1021.0
2018-12-30T09:03:24.445Z,1021.0
2018-12-30T09:04:26.024Z,1021.0
2018-12-30T09:05:28.672Z,1021.1
2018-12-30T09:06:30.203Z,1021.1
2018-12-30T09:07:32.788Z,1021.1
2018-12-30T09:08:34.447Z,1021.1
2018-12-30T09:09:37.137Z,1021.2
2018-12-30T09:10:39.044Z,1021.2
2018-12-30T09:11:41.600Z,1021.2
2018-12-30T09:12:43.133Z,1021.2
2018-12-30T09:13:44.677Z,1021.2
2018-12-30T09:14:46.172Z,1021.3
2018-12-30T09:15:47.775Z,1021.3
2018-12-30T09:16:49.323Z,1021.3
2018-12-30T09:17:50.862Z,1021.4
2018-12-30T09:18:52.406Z,1021.4
2018-12-30T09:19:53.980Z,1021.4
2018-12-30T09:20:56.843Z,1021.3
2018-12-30T09:21:59.087Z,1021.3
2018-12-30T09:23:00.608Z,1021.4
2018-12-30T09:24:02.956Z,1021.3
2018-12-30T09:25:04.562Z,1021.4
2018-12-30T09:26:06.778Z,1021.4
2018-12-30T09:27:08.283Z,1021.4
2018-12-30T09:28:10.480Z,1021.4
2018-12-30T09:29:12.033Z,1021.4
2018-12-30T09:30:13.558Z,1021.4
2018-12-30T09:31:15.052Z,1021.5
2018-12-30T09:32:17.056Z,1021.5
2018-12-30T09:33:19.264Z,1021.5
2018-12-30T09:34:20.030Z,1021.5
2018-12-30T09:35:22.253Z,1021.4
2018-12-30T09:36:23.764Z,1021.5
2018-12-30T09:37:25.359Z,1021.5
2018-12-30T09:38:26.951Z,1021.5
2018-12-30T09:39:28.473Z,1021.5
2018-12-30T09:40:30.029Z,1021.5
2018-12-30T09:41:31.581Z,1021.5
2018-12-30T09:42:33.834Z,1021.6
2018-12-30T09:43:35.394Z,1021.6
2018-12-30T09:44:37.541Z,1021.6
2018-12-30T09:45:39.063Z,1021.6
2018-12-30T09:46:42.193Z,1021.5
2018-12-30T09:47:43.731Z,1021.6
2018-12-30T09:48:46.013Z,1021.5
2018-12-30T09:49:48.555Z,1021.5
2018-12-30T09:50:50.156Z,1021.5
2018-12-30T09:51:52.340Z,1021.6
2018-12-30T09:52:53.915Z,1021.6
2018-12-30T09:53:55.388Z,1021.6
2018-12-30T09:54:56.928Z,1021.6
2018-12-30T09:55:58.341Z,1021.5
2018-12-30T09:57:00.517Z,1021.6
2018-12-30T09:58:02.436Z,1021.6
2018-12-30T09:59:03.978Z,1021.6
2018-12-30T10:00:05.624Z,1021.6
2018-12-30T10:01:07.120Z,1021.5
2018-12-30T10:02:09.749Z,1021.5
2018-12-30T10:03:12.168Z,1021.5
2018-12-30T10:04:14.219Z,1021.5
2018-12-30T10:05:16.299Z,1021.5
2018-12-30T10:06:18.504Z,1021.5
2018-12-30T10:07:20.595Z,1021.6
2018-12-30T10:08:22.851Z,1021.6
2018-12-30T10:09:25.764Z,1021.5
2018-12-30T10:10:28.186Z,1021.5
2018-12-30T10:11:30.283Z,1021.5
2018-12-30T10:12:32.161Z,1021.5
2018-12-30T10:13:33.666Z,1021.5
2018-12-30T10:14:35.129Z,1021.5
2018-12-30T10:15:36.564Z,1021.5
2018-12-30T10:16:38.021Z,1021.5
2018-12-30T10:17:39.500Z,1021.5
2018-12-30T10:18:40.910Z,1021.5
2018-12-30T10:19:42.283Z,1021.5
2018-12-30T10:20:43.713Z,1021.4
2018-12-30T10:21:45.136Z,1021.4
2018-12-30T10:22:46.561Z,1021.4
2018-12-30T10:23:52.946Z,1021.4
2018-12-30T10:24:50.231Z,1021.4
2018-12-30T10:25:51.719Z,1021.4
2018-12-30T10:26:53.925Z,1021.4
2018-12-30T10:27:59.350Z,1021.4
2018-12-30T10:29:01.591Z,1021.4
2018-12-30T10:30:03.009Z,1021.5
2018-12-30T10:31:06.790Z,1021.5
2018-12-30T10:32:09.416Z,1021.6
2018-12-30T10:33:11.551Z,1021.6
2018-12-30T10:34:15.371Z,1021.5
2018-12-30T10:35:18.627Z,1021.5
2018-12-30T10:36:20.089Z,1021.6
2018-12-30T10:37:21.534Z,1021.6
2018-12-30T10:38:22.960Z,1021.6
2018-12-30T10:39:25.380Z,1021.6
2018-12-30T10:40:28.985Z,1021.6
2018-12-30T10:41:30.389Z,1021.7
2018-12-30T10:42:31.796Z,1021.7
2018-12-30T10:43:33.229Z,1021.7
2018-12-30T10:44:34.716Z,1021.7
2018-12-30T10:45:36.230Z,1021.7
2018-12-30T10:46:38.464Z,1021.7
2018-12-30T10:47:41.679Z,1021.7
2018-12-30T10:48:43.158Z,1021.7
2018-12-30T10:49:44.591Z,1021.7
2018-12-30T10:50:46.039Z,1021.6
2018-12-30T10:51:47.526Z,1021.6
2018-12-30T10:52:50.166Z,1021.6
2018-12-30T10:53:52.075Z,1021.6
2018-12-30T10:54:53.559Z,1021.6
2018-12-30T10:55:54.985Z,1021.5
2018-12-30T10:56:56.428Z,1021.5
2018-12-30T10:57:59.276Z,1021.5
2018-12-30T10:59:00.029Z,1021.5
2018-12-30T11:00:01.595Z,1021.5
2018-12-30T11:01:03.081Z,1021.5
2018-12-30T11:02:05.181Z,1021.5
2018-12-30T11:03:07.972Z,1021.5
2018-12-30T11:04:07.930Z,1021.4
2018-12-30T11:05:09.331Z,1021.5
2018-12-30T11:06:10.840Z,1021.5
2018-12-30T11:07:12.241Z,1021.4
2018-12-30T11:08:13.643Z,1021.5
2018-12-30T11:09:15.047Z,1021.4
2018-12-30T11:10:16.465Z,1021.4
2018-12-30T11:11:19.170Z,1021.4
2018-12-30T11:12:20.602Z,1021.4
2018-12-30T11:13:22.011Z,1021.4
2018-12-30T11:14:23.396Z,1021.3
2018-12-30T11:15:24.781Z,1021.4
2018-12-30T11:16:26.195Z,1021.4
2018-12-30T11:17:27.587Z,1021.4
2018-12-30T11:18:29.040Z,1021.4
2018-12-30T11:19:30.460Z,1021.4
2018-12-30T11:20:32.375Z,1021.4
2018-12-30T11:21:33.771Z,1021.4
2018-12-30T11:22:36.799Z,1021.4
2018-12-30T11:23:37.584Z,1021.4
2018-12-30T11:24:39.671Z,1021.4
2018-12-30T11:25:41.156Z,1021.4
2018-12-30T11:26:42.665Z,1021.4
2018-12-30T11:27:44.175Z,1021.4
2018-12-30T11:28:45.729Z,1021.5
2018-12-30T11:29:47.227Z,1021.5
2018-12-30T11:30:48.686Z,1021.4
2018-12-30T11:31:50.105Z,1021.5
2018-12-30T11:32:51.509Z,1021.5
2018-12-30T11:33:52.985Z,1021.5
2018-12-30T11:34:54.436Z,1021.5
2018-12-30T11:35:56.525Z,1021.5
2018-12-30T11:36:57.924Z,1021.5
2018-12-30T11:37:59.344Z,1021.5
2018-12-30T11:39:00.733Z,1021.5
2018-12-30T11:40:02.144Z,1021.5
2018-12-30T11:41:03.580Z,1021.5
2018-12-30T11:42:05.949Z,1021.5
2018-12-30T11:43:07.379Z,1021.5
2018-12-30T11:44:09.092Z,1021.6
2018-12-30T11:45:10.640Z,1021.5
2018-12-30T11:46:12.412Z,1021.5
2018-12-30T11:47:13.902Z,1021.5
2018-12-30T11:48:15.515Z,1021.5
2018-12-30T11:49:17.210Z,1021.5
2018-12-30T11:50:18.710Z,1021.5
2018-12-30T11:51:20.211Z,1021.4
2018-12-30T11:52:21.696Z,1021.4
2018-12-30T11:53:23.382Z,1021.4
2018-12-30T11:54:24.905Z,1021.4
2018-12-30T11:55:26.401Z,1021.3
2018-12-30T11:56:28.826Z,1021.3
2018-12-30T11:57:30.310Z,1021.3
2018-12-30T11:58:31.767Z,1021.3
2018-12-30T11:59:33.271Z,1021.3
2018-12-30T12:00:34.901Z,1021.3
2018-12-30T12:01:37.342Z,1021.3
2018-12-30T12:02:38.775Z,1021.3
2018-12-30T12:03:40.271Z,1021.3
2018-12-30T12:04:41.745Z,1021.3
2018-12-30T12:05:43.250Z,1021.3
2018-12-30T12:06:44.771Z,1021.2
2018-12-30T12:07:46.287Z,1021.2
2018-12-30T12:08:48.653Z,1021.2
2018-12-30T12:09:50.107Z,1021.1
2018-12-30T12:10:51.606Z,1021.1
2018-12-30T12:11:53.066Z,1021.0
2018-12-30T12:12:54.520Z,1021.1
2018-12-30T12:13:56.030Z,1021.1
2018-12-30T12:14:57.505Z,1021.1
2018-12-30T12:15:59.003Z,1021.0
2018-12-30T12:17:01.001Z,1021.0
2018-12-30T12:18:02.476Z,1021.0
2018-12-30T12:19:04.014Z,1021.0
2018-12-30T12:20:05.524Z,1021.0
2018-12-30T12:21:07.457Z,1021.0
2018-12-30T12:22:09.172Z,1021.0
2018-12-30T12:23:11.420Z,1021.0
2018-12-30T12:24:12.874Z,1021.0
2018-12-30T12:25:14.472Z,1021.0
2018-12-30T12:26:16.401Z,1021.1
2018-12-30T12:27:17.899Z,1021.1
2018-12-30T12:28:20.322Z,1021.1
2018-12-30T12:29:21.815Z,1021.0
2018-12-30T12:30:23.240Z,1021.0
2018-12-30T12:31:25.720Z,1021.0
2018-12-30T12:32:27.807Z,1021.0
2018-12-30T12:33:29.571Z,1021.0
2018-12-30T12:34:32.727Z,1020.9
2018-12-30T12:35:34.190Z,1020.9
2018-12-30T12:36:35.643Z,1020.9
2018-12-30T12:37:37.697Z,1020.9
2018-12-30T12:38:39.175Z,1020.9
2018-12-30T12:39:40.642Z,1020.9
2018-12-30T12:40:42.842Z,1020.8
2018-12-30T12:41:44.359Z,1020.9
2018-12-30T12:42:45.821Z,1020.8
2018-12-30T12:43:47.311Z,1020.8
2018-12-30T12:44:48.782Z,1020.8
2018-12-30T12:45:50.930Z,1020.8
2018-12-30T12:46:52.546Z,1020.8
2018-12-30T12:47:54.032Z,1020.8
2018-12-30T12:48:55.541Z,1020.8
2018-12-30T12:49:56.944Z,1020.8
2018-12-30T12:50:58.334Z,1020.8